Time;durP1;ratioP1;P1;durP2;ratioP2;P2;SDS_P1;SDS_P2;PMS_P1;PMS_P2;Temp;Humidity;BMP_temperature;BMP_pressure;BME280_temperature;BME280_humidity;BME280_pressure;Samples;Min_cycle;Max_cycle;Signal;HPM_P1;HPM_P2
2022/10/05 00:00:25;;;;;;;2.08;1.33;;;21.80;49.90;;;;;;5040507;28;20355;-57
2022/10/05 00:02:53;;;;;;;2.88;1.90;;;21.80;49.80;;;;;;5047207;28;20028;-57
2022/10/05 00:05:32;;;;;;;2.55;1.45;;;21.80;49.90;;;;;;5050893;28;20033;-54
2022/10/05 00:08:10;;;;;;;3.30;1.65;;;21.80;49.80;;;;;;5042499;28;20346;-55
2022/10/05 00:10:40;;;;;;;2.30;1.70;;;21.80;49.80;;;;;;5038195;28;20045;-55
2022/10/05 00:13:19;;;;;;;2.40;1.65;;;21.80;49.90;;;;;;5047122;28;20426;-54
2022/10/05 00:15:45;;;;;;;2.00;1.60;;;21.80;49.90;;;;;;5052049;28;20082;-57
2022/10/05 00:18:18;;;;;;;3.13;1.70;;;21.80;49.90;;;;;;5045034;28;20028;-57
2022/10/05 00:20:45;;;;;;;3.00;1.80;;;21.80;49.90;;;;;;5049280;28;20032;-58
2022/10/05 00:23:20;;;;;;;2.42;1.67;;;21.80;49.90;;;;;;5049450;28;20044;-55
2022/10/05 00:25:46;;;;;;;1.45;1.30;;;21.80;49.90;;;;;;5050471;28;20116;-56
2022/10/05 00:28:27;;;;;;;3.63;1.75;;;21.80;49.90;;;;;;5046981;28;20022;-57
2022/10/05 00:30:58;;;;;;;2.13;1.45;;;21.80;49.90;;;;;;5047494;28;20040;-58
2022/10/05 00:33:24;;;;;;;2.30;1.60;;;21.80;49.90;;;;;;5048697;28;20040;-56
2022/10/05 00:35:52;;;;;;;3.17;1.75;;;21.80;49.90;;;;;;5044516;28;20120;-56
2022/10/05 00:38:18;;;;;;;2.50;1.60;;;21.80;49.90;;;;;;5043452;28;20025;-53
2022/10/05 00:41:02;;;;;;;2.38;1.60;;;21.80;49.90;;;;;;5050400;28;20119;-56
2022/10/05 00:43:55;;;;;;;2.55;1.70;;;21.80;50.00;;;;;;5036625;28;20026;-55
2022/10/05 00:46:57;;;;;;;2.00;1.50;;;21.80;50.00;;;;;;5051329;28;20095;-55
2022/10/05 00:49:41;;;;;;;3.60;1.60;;;21.80;50.00;;;;;;5043286;28;20468;-56
2022/10/05 00:52:27;;;;;;;2.55;1.60;;;21.80;50.10;;;;;;5043152;28;20055;-54
2022/10/05 00:55:05;;;;;;;2.80;1.45;;;21.80;50.10;;;;;;5049027;28;20037;-58
2022/10/05 00:57:36;;;;;;;4.97;1.63;;;21.80;50.10;;;;;;5035386;28;20037;-57
2022/10/05 01:00:16;;;;;;;1.77;1.67;;;21.80;50.10;;;;;;5046864;28;20025;-52
2022/10/05 01:03:06;;;;;;;2.28;1.50;;;21.70;50.10;;;;;;5045271;28;20107;-52
2022/10/05 01:06:02;;;;;;;2.72;1.80;;;21.80;50.20;;;;;;5045324;28;20029;-53
2022/10/05 01:08:49;;;;;;;5.32;1.80;;;21.80;50.10;;;;;;5047023;28;20095;-54
2022/10/05 01:11:32;;;;;;;2.83;1.83;;;21.70;50.10;;;;;;5048624;28;20103;-52
2022/10/05 01:14:15;;;;;;;2.25;1.55;;;21.70;50.10;;;;;;5046735;28;20029;-58
2022/10/05 01:16:46;;;;;;;2.28;1.83;;;21.70;50.20;;;;;;5034660;28;22228;-54
2022/10/05 01:19:45;;;;;;;3.25;1.67;;;21.70;50.20;;;;;;5042883;28;20135;-56
2022/10/05 01:22:23;;;;;;;2.10;1.55;;;21.70;50.20;;;;;;5019699;28;20040;-55
2022/10/05 01:25:02;;;;;;;3.05;1.60;;;21.70;50.20;;;;;;5048827;28;20057;-54
2022/10/05 01:27:49;;;;;;;2.88;1.77;;;21.80;50.40;;;;;;5048578;28;20029;-57
2022/10/05 01:30:18;;;;;;;2.35;1.80;;;21.70;50.50;;;;;;5044740;28;20079;-59
2022/10/05 01:32:53;;;;;;;1.77;1.55;;;21.70;50.60;;;;;;5042857;28;20033;-56
2022/10/05 01:35:35;;;;;;;1.75;1.42;;;21.70;50.60;;;;;;5046695;28;20021;-57
2022/10/05 01:38:49;;;;;;;1.50;1.33;;;21.70;50.60;;;;;;5048470;28;20033;-58
2022/10/05 01:41:39;;;;;;;2.80;1.42;;;21.70;50.70;;;;;;5024109;28;20052;-57
2022/10/05 01:44:15;;;;;;;1.70;1.60;;;21.70;50.60;;;;;;5044621;28;20033;-56
2022/10/05 01:47:05;;;;;;;2.40;1.58;;;21.70;50.60;;;;;;5046663;28;20044;-57
2022/10/05 01:49:45;;;;;;;2.60;2.00;;;21.70;50.60;;;;;;5039130;28;20102;-57
2022/10/05 01:52:38;;;;;;;2.60;1.90;;;21.70;50.60;;;;;;5046915;28;20029;-58
2022/10/05 01:55:03;;;;;;;2.45;1.70;;;21.70;50.60;;;;;;5040294;28;20124;-54
2022/10/05 01:57:38;;;;;;;2.38;1.77;;;21.70;50.60;;;;;;5048376;28;20500;-56
2022/10/05 02:00:11;;;;;;;3.15;2.08;;;21.70;50.70;;;;;;5035204;28;20041;-57
2022/10/05 02:02:55;;;;;;;2.97;1.90;;;21.70;50.70;;;;;;5027546;28;20469;-56
2022/10/05 02:05:43;;;;;;;2.22;1.60;;;21.70;50.70;;;;;;5047412;28;20036;-58
2022/10/05 02:08:47;;;;;;;3.42;1.75;;;21.70;50.70;;;;;;5045721;28;20056;-58
2022/10/05 02:11:14;;;;;;;3.17;1.80;;;21.70;50.70;;;;;;5033862;28;20061;-54
2022/10/05 02:13:43;;;;;;;2.28;1.70;;;21.70;50.70;;;;;;5048475;28;20029;-55
2022/10/05 02:16:19;;;;;;;2.15;1.83;;;21.70;50.80;;;;;;5045105;28;20033;-57
2022/10/05 02:18:57;;;;;;;2.60;1.88;;;21.70;50.80;;;;;;5043658;28;20029;-57
2022/10/05 02:21:23;;;;;;;2.67;1.75;;;21.70;50.90;;;;;;5046615;28;20083;-57
2022/10/05 02:23:55;;;;;;;2.28;1.70;;;21.70;50.90;;;;;;5044952;28;20079;-58
2022/10/05 02:26:23;;;;;;;2.50;1.88;;;21.70;50.90;;;;;;5043629;28;20052;-54
2022/10/05 02:28:57;;;;;;;2.15;1.60;;;21.70;50.90;;;;;;5047002;28;20425;-57
2022/10/05 02:31:33;;;;;;;2.15;1.70;;;21.70;50.90;;;;;;5043989;28;20130;-55
2022/10/05 02:34:30;;;;;;;2.20;1.70;;;21.70;50.90;;;;;;5041572;28;20026;-57
2022/10/05 02:37:23;;;;;;;;;;;21.70;50.90;;;;;;5039360;28;20033;-57
2022/10/05 02:40:08;;;;;;;3.80;1.73;;;21.70;51.00;;;;;;5034202;28;19908;-55
2022/10/05 02:42:59;;;;;;;3.22;2.10;;;21.60;50.90;;;;;;5029892;28;20421;-58
2022/10/05 02:45:40;;;;;;;2.40;2.00;;;21.70;51.00;;;;;;5045308;28;20360;-54
2022/10/05 02:48:40;;;;;;;2.65;1.88;;;21.60;51.00;;;;;;5044737;28;20108;-57
2022/10/05 02:51:23;;;;;;;2.05;1.58;;;21.60;51.00;;;;;;5034202;28;20054;-53
2022/10/05 02:54:09;;;;;;;2.92;1.70;;;21.60;51.00;;;;;;5040597;28;20110;-54
2022/10/05 02:56:46;;;;;;;2.92;1.77;;;21.60;51.00;;;;;;5047795;28;20029;-57
2022/10/05 02:59:28;;;;;;;3.38;2.08;;;21.70;51.10;;;;;;5045057;28;20468;-58
2022/10/05 03:02:02;;;;;;;1.80;1.60;;;21.60;51.10;;;;;;5048508;28;20036;-58
2022/10/05 03:04:49;;;;;;;2.67;1.75;;;21.60;51.20;;;;;;5038261;28;20021;-58
2022/10/05 03:07:17;;;;;;;2.25;1.80;;;21.60;51.20;;;;;;5047614;28;20064;-55
2022/10/05 03:10:10;;;;;;;2.65;1.83;;;21.60;51.20;;;;;;5042269;28;20040;-58
2022/10/05 03:13:03;;;;;;;2.28;1.90;;;21.60;51.20;;;;;;5033145;28;20073;-57
2022/10/05 03:15:54;;;;;;;2.22;1.70;;;21.60;51.20;;;;;;5034162;28;20365;-56
2022/10/05 03:18:37;;;;;;;2.70;1.90;;;21.60;51.30;;;;;;5041025;28;20033;-55
2022/10/05 03:21:29;;;;;;;2.22;1.77;;;21.60;51.30;;;;;;5037441;28;20034;-56
2022/10/05 03:24:19;;;;;;;3.03;1.90;;;21.60;51.30;;;;;;5041507;28;20040;-56
2022/10/05 03:27:15;;;;;;;1.90;1.63;;;21.60;51.30;;;;;;5047047;28;20037;-55
2022/10/05 03:29:57;;;;;;;2.88;1.70;;;21.60;51.30;;;;;;5041381;28;20036;-56
2022/10/05 03:32:54;;;;;;;2.72;1.90;;;21.60;51.30;;;;;;5041524;28;20102;-59
2022/10/05 03:35:53;;;;;;;1.70;1.40;;;21.60;51.30;;;;;;5046164;28;20018;-58
2022/10/05 03:38:22;;;;;;;2.53;1.83;;;21.60;51.40;;;;;;5030654;28;20458;-56
2022/10/05 03:41:02;;;;;;;2.75;1.67;;;21.60;51.40;;;;;;5042317;28;20458;-56
2022/10/05 03:43:56;;;;;;;2.42;1.58;;;21.60;51.40;;;;;;5045613;28;20033;-57
2022/10/05 03:46:47;;;;;;;2.97;1.73;;;21.60;51.40;;;;;;5046888;28;20047;-56
2022/10/05 03:49:46;;;;;;;2.97;2.00;;;21.60;51.50;;;;;;5047008;28;20033;-53
2022/10/05 03:52:35;;;;;;;2.20;1.83;;;21.60;51.50;;;;;;5035389;28;20115;-55
2022/10/05 03:55:14;;;;;;;3.35;1.80;;;21.60;51.50;;;;;;5042910;28;20033;-59
2022/10/05 03:57:42;;;;;;;3.22;2.00;;;21.60;51.50;;;;;;5035668;28;20112;-52
2022/10/05 04:00:18;;;;;;;3.15;2.00;;;21.60;51.60;;;;;;5042726;28;20037;-57
2022/10/05 04:02:55;;;;;;;2.40;2.00;;;21.60;51.60;;;;;;5045321;28;20041;-58
2022/10/05 04:05:30;;;;;;;3.08;1.88;;;21.60;51.60;;;;;;5046870;28;20048;-57
2022/10/05 04:08:33;;;;;;;2.33;1.95;;;21.60;51.60;;;;;;5038758;28;20444;-58
2022/10/05 04:11:07;;;;;;;2.25;2.03;;;21.60;51.60;;;;;;5042539;28;20874;-57
2022/10/05 04:13:36;;;;;;;3.08;1.73;;;21.60;51.60;;;;;;5046153;28;20364;-55
2022/10/05 04:16:07;;;;;;;2.45;2.13;;;21.60;51.60;;;;;;5041133;28;20120;-57
2022/10/05 04:18:38;;;;;;;2.45;1.70;;;21.60;51.60;;;;;;5044227;28;20112;-56
2022/10/05 04:21:57;;;;;;;2.40;1.40;;;21.60;51.60;;;;;;5041181;28;20448;-57
2022/10/05 04:24:39;;;;;;;3.15;1.70;;;21.60;51.60;;;;;;5040477;28;20068;-54
2022/10/05 04:27:13;;;;;;;3.28;2.13;;;21.60;51.60;;;;;;5033185;28;20051;-57
2022/10/05 04:29:45;;;;;;;2.72;1.73;;;21.60;51.60;;;;;;5030878;28;20029;-56
2022/10/05 04:32:14;;;;;;;2.28;1.90;;;21.50;51.60;;;;;;5043531;28;20104;-57
2022/10/05 04:34:55;;;;;;;2.85;1.90;;;21.60;51.70;;;;;;5044136;28;20472;-57
2022/10/05 04:38:00;;;;;;;2.75;1.77;;;21.60;51.60;;;;;;5042119;28;20024;-56
2022/10/05 04:40:44;;;;;;;1.65;1.50;;;21.60;51.70;;;;;;5011927;28;20041;-54
2022/10/05 04:43:18;;;;;;;;;;;21.60;51.60;;;;;;5042138;28;20080;-55
2022/10/05 04:46:24;;;;;;;2.63;1.60;;;21.60;51.60;;;;;;5046527;28;19908;-57
2022/10/05 04:49:09;;;;;;;1.88;1.55;;;21.50;51.50;;;;;;5042244;28;20031;-59
2022/10/05 04:51:54;;;;;;;1.88;1.50;;;21.50;52.20;;;;;;5047063;28;20091;-58
2022/10/05 04:54:39;;;;;;;2.65;1.52;;;21.50;51.60;;;;;;5049125;28;20471;-55
2022/10/05 04:57:18;;;;;;;2.10;1.52;;;21.50;51.60;;;;;;5041549;28;20025;-55
2022/10/05 04:59:59;;;;;;;2.10;1.70;;;21.50;51.60;;;;;;5035281;28;20037;-54
2022/10/05 05:02:25;;;;;;;3.92;1.55;;;21.50;51.60;;;;;;5042463;28;20013;-56
2022/10/05 05:04:59;;;;;;;1.85;1.35;;;21.50;51.70;;;;;;5045255;28;20478;-58
2022/10/05 05:07:31;;;;;;;3.08;1.83;;;21.50;51.70;;;;;;5042408;28;20068;-57
2022/10/05 05:10:26;;;;;;;2.22;1.52;;;21.50;51.70;;;;;;5045144;28;20033;-58
2022/10/05 05:13:04;;;;;;;3.10;1.60;;;21.50;51.70;;;;;;5027213;28;20168;-56
2022/10/05 05:15:46;;;;;;;2.17;1.70;;;21.50;51.70;;;;;;5046310;28;20032;-54
2022/10/05 05:18:29;;;;;;;2.88;1.92;;;21.50;51.70;;;;;;5042622;28;20033;-56
2022/10/05 05:21:15;;;;;;;1.98;1.33;;;21.50;51.70;;;;;;5033401;28;20026;-55
2022/10/05 05:24:18;;;;;;;2.28;1.60;;;21.50;51.70;;;;;;5041822;28;20108;-57
2022/10/05 05:27:08;;;;;;;2.53;1.50;;;21.50;51.70;;;;;;5035145;28;22067;-58
2022/10/05 05:29:56;;;;;;;2.22;1.58;;;21.50;51.70;;;;;;5038083;28;20436;-58
2022/10/05 05:32:34;;;;;;;1.50;1.38;;;21.50;51.60;;;;;;5046050;28;20419;-58
2022/10/05 05:35:25;;;;;;;1.58;1.48;;;21.50;51.70;;;;;;5044913;28;20104;-57
2022/10/05 05:38:19;;;;;;;1.83;1.48;;;21.50;51.60;;;;;;5044322;28;20112;-57
2022/10/05 05:41:03;;;;;;;2.63;1.90;;;21.50;51.60;;;;;;5047217;28;20022;-56
2022/10/05 05:44:05;;;;;;;2.05;1.27;;;21.50;51.60;;;;;;5044658;28;20459;-55
2022/10/05 05:46:36;;;;;;;1.67;1.10;;;21.50;51.60;;;;;;5011205;28;20521;-56
2022/10/05 05:49:14;;;;;;;2.10;1.77;;;21.50;51.60;;;;;;5045992;28;20057;-56
2022/10/05 05:51:49;;;;;;;1.90;1.50;;;21.50;51.60;;;;;;5047868;28;20131;-57
2022/10/05 05:54:14;;;;;;;1.83;1.50;;;21.50;51.60;;;;;;5046190;28;20021;-58
2022/10/05 05:57:07;;;;;;;3.83;1.90;;;21.50;51.60;;;;;;5040831;28;20033;-59
2022/10/05 05:59:45;;;;;;;2.33;1.60;;;21.50;51.60;;;;;;5034556;28;20492;-55
2022/10/05 06:02:18;;;;;;;2.40;1.90;;;21.50;51.60;;;;;;5047121;28;20029;-57
2022/10/05 06:04:51;;;;;;;1.75;1.40;;;21.50;51.60;;;;;;5033578;28;20021;-54
2022/10/05 06:07:23;;;;;;;1.92;1.40;;;21.50;51.60;;;;;;5043250;28;20090;-58
2022/10/05 06:10:23;;;;;;;1.90;1.52;;;21.50;51.60;;;;;;5037299;28;20124;-57
2022/10/05 06:13:03;;;;;;;2.53;1.75;;;21.50;51.60;;;;;;5044034;28;20135;-56
2022/10/05 06:15:29;;;;;;;1.90;1.30;;;21.50;51.60;;;;;;5049836;28;20040;-56
2022/10/05 06:18:00;;;;;;;6.70;1.42;;;21.50;51.60;;;;;;5044446;28;20025;-58
2022/10/05 06:20:35;;;;;;;1.77;1.67;;;21.50;51.60;;;;;;5040623;28;20049;-57
2022/10/05 06:23:09;;;;;;;2.53;1.73;;;21.50;51.70;;;;;;5035599;28;20029;-58
2022/10/05 06:26:20;;;;;;;1.73;1.37;;;21.50;51.60;;;;;;5047209;28;20036;-58
2022/10/05 06:29:18;;;;;;;2.40;1.55;;;21.50;51.70;;;;;;4985303;28;20056;-55
2022/10/05 06:32:20;;;;;;;2.15;1.60;;;21.50;51.70;;;;;;5073109;28;20049;-56
2022/10/05 06:34:55;;;;;;;2.60;1.60;;;21.50;51.60;;;;;;5025624;28;20102;-60
2022/10/05 06:37:36;;;;;;;2.38;1.50;;;21.50;51.70;;;;;;5074196;28;20033;-58
2022/10/05 06:40:26;;;;;;;1.83;1.60;;;21.50;51.70;;;;;;5046635;28;20029;-57
2022/10/05 06:43:32;;;;;;;3.22;1.55;;;21.50;51.70;;;;;;5038155;28;20028;-59
2022/10/05 06:46:40;;;;;;;1.60;1.40;;;21.50;51.70;;;;;;5074431;28;20028;-58
2022/10/05 06:49:34;;;;;;;1.80;1.30;;;21.50;51.80;;;;;;5034459;28;20115;-56
2022/10/05 06:52:31;;;;;;;1.92;1.42;;;21.50;51.80;;;;;;5041273;28;20133;-55
2022/10/05 06:55:30;;;;;;;1.67;1.33;;;21.50;51.80;;;;;;5058280;28;20029;-58
2022/10/05 06:58:50;;;;;;;1.70;1.38;;;21.50;51.80;;;;;;5043641;28;20032;-54
2022/10/05 07:01:46;;;;;;;3.72;1.40;;;21.40;51.80;;;;;;5005856;28;20029;-56
2022/10/05 07:04:29;;;;;;;2.35;1.35;;;21.40;51.80;;;;;;5039834;28;20030;-57
2022/10/05 07:07:03;;;;;;;2.15;1.40;;;21.50;52.00;;;;;;5043955;28;20020;-58
2022/10/05 07:09:56;;;;;;;2.58;1.48;;;21.50;52.00;;;;;;5037836;28;20061;-56
2022/10/05 07:12:38;;;;;;;2.85;1.50;;;21.50;52.10;;;;;;5034031;28;20060;-58
2022/10/05 07:15:26;;;;;;;2.03;1.40;;;21.50;52.10;;;;;;5037300;28;20417;-56
2022/10/05 07:18:05;;;;;;;1.95;1.30;;;21.50;52.10;;;;;;5032423;28;20026;-58
2022/10/05 07:20:40;;;;;;;2.22;1.42;;;21.50;52.20;;;;;;5044159;28;20031;-55
2022/10/05 07:23:35;;;;;;;1.73;1.48;;;21.50;52.20;;;;;;5027430;28;20049;-59
2022/10/05 07:26:19;;;;;;;2.22;1.23;;;21.50;52.20;;;;;;5034375;28;20029;-56
2022/10/05 07:29:11;;;;;;;2.47;1.40;;;21.50;52.20;;;;;;5036970;28;20036;-58
2022/10/05 07:31:52;;;;;;;1.73;1.48;;;21.50;52.20;;;;;;5047944;28;20136;-57
2022/10/05 07:34:27;;;;;;;3.58;1.80;;;21.50;52.20;;;;;;5053876;28;20037;-59
2022/10/05 07:40:05;;;;;;;2.20;1.45;;;21.50;52.20;;;;;;5039947;28;20064;-58
2022/10/05 07:42:59;;;;;;;2.17;1.42;;;21.50;52.20;;;;;;5045700;28;20030;-57
2022/10/05 07:45:56;;;;;;;2.80;1.48;;;21.50;52.20;;;;;;5029915;28;20515;-58
2022/10/05 07:48:43;;;;;;;2.38;1.20;;;21.50;52.10;;;;;;5041418;28;20492;-58
2022/10/05 07:51:30;;;;;;;2.25;1.20;;;21.50;52.20;;;;;;5038503;28;20060;-56
2022/10/05 07:54:14;;;;;;;1.73;1.40;;;21.50;52.20;;;;;;5041965;28;20107;-55
2022/10/05 07:56:44;;;;;;;1.95;1.50;;;21.50;52.20;;;;;;5045308;28;20037;-55
2022/10/05 07:59:29;;;;;;;2.55;1.27;;;21.50;52.20;;;;;;5039522;28;20060;-57
2022/10/05 08:02:17;;;;;;;2.47;1.75;;;21.50;52.20;;;;;;5070255;28;20032;-58
2022/10/05 08:04:52;;;;;;;2.47;1.50;;;21.50;52.20;;;;;;5034288;28;20025;-57
2022/10/05 08:07:19;;;;;;;1.20;1.10;;;21.50;52.20;;;;;;5038986;28;20021;-54
2022/10/05 08:10:36;;;;;;;2.10;1.33;;;21.60;52.20;;;;;;5038917;28;20047;-55
2022/10/05 08:13:35;;;;;;;1.20;1.10;;;21.60;52.10;;;;;;5030425;28;20053;-55
2022/10/05 08:16:11;;;;;;;2.35;1.50;;;21.50;52.00;;;;;;5027476;28;20029;-57
2022/10/05 08:18:57;;;;;;;1.67;1.35;;;21.50;52.00;;;;;;5040807;28;20570;-53
2022/10/05 08:21:32;;;;;;;1.38;1.17;;;21.50;52.00;;;;;;5045458;28;20463;-53
2022/10/05 08:23:58;;;;;;;1.60;1.40;;;21.50;52.60;;;;;;5042528;28;20107;-57
2022/10/05 08:26:51;;;;;;;2.28;1.25;;;21.60;52.00;;;;;;5030215;28;20034;-57
2022/10/05 08:29:41;;;;;;;2.60;1.30;;;21.60;52.00;;;;;;5055989;28;20029;-60
2022/10/05 08:32:20;;;;;;;1.92;1.15;;;21.60;51.90;;;;;;5058259;28;20091;-57
2022/10/05 08:35:07;;;;;;;3.17;1.27;;;21.50;51.80;;;;;;5057804;28;20033;-57
2022/10/05 08:37:39;;;;;;;2.28;1.30;;;21.60;51.80;;;;;;5058059;28;20037;-58
2022/10/05 08:40:17;;;;;;;1.98;1.30;;;21.60;51.70;;;;;;5057631;28;20037;-56
2022/10/05 08:43:01;;;;;;;1.67;1.13;;;21.60;51.70;;;;;;5049213;28;20037;-58
2022/10/05 08:45:33;;;;;;;1.10;1.00;;;21.60;51.60;;;;;;5038078;28;20147;-56
2022/10/05 08:48:22;;;;;;;2.28;1.20;;;21.60;51.50;;;;;;5037071;28;20415;-57
2022/10/05 08:51:32;;;;;;;1.45;1.10;;;21.60;51.50;;;;;;5037679;28;20037;-55
2022/10/05 08:54:21;;;;;;;1.20;0.90;;;21.60;51.40;;;;;;5015741;28;20052;-54
2022/10/05 08:57:13;;;;;;;1.42;1.10;;;21.60;51.40;;;;;;5015385;28;20092;-56
2022/10/05 08:59:47;;;;;;;1.65;1.05;;;21.50;51.30;;;;;;5053314;28;20052;-58
2022/10/05 09:02:22;;;;;;;;;;;21.60;51.30;;;;;;5058046;28;20032;-54
2022/10/05 09:05:25;;;;;;;4.43;1.08;;;21.60;51.30;;;;;;5058860;28;19909;-58
2022/10/05 09:08:29;;;;;;;1.58;0.90;;;21.60;51.30;;;;;;5028251;28;20441;-52
2022/10/05 09:11:04;;;;;;;2.65;1.10;;;21.60;51.30;;;;;;5017610;28;20069;-55
2022/10/05 09:13:48;;;;;;;2.30;1.17;;;21.60;51.30;;;;;;5018893;28;20433;-57
2022/10/05 09:16:27;;;;;;;1.33;0.82;;;21.60;51.30;;;;;;5039546;28;20044;-54
2022/10/05 09:19:30;;;;;;;3.03;1.13;;;21.60;51.30;;;;;;5039283;28;20031;-54
2022/10/05 09:21:57;;;;;;;2.00;1.10;;;21.60;51.30;;;;;;5037647;28;20066;-56
2022/10/05 09:24:45;;;;;;;1.02;0.90;;;21.60;51.40;;;;;;5037500;28;20138;-54
2022/10/05 09:27:17;;;;;;;1.92;1.17;;;21.60;51.40;;;;;;5037371;28;20055;-54
2022/10/05 09:29:46;;;;;;;1.90;0.90;;;21.60;51.40;;;;;;5036588;28;20037;-52
2022/10/05 09:32:26;;;;;;;1.30;1.20;;;21.60;51.50;;;;;;5036946;28;20037;-56
2022/10/05 09:35:04;;;;;;;2.03;1.42;;;21.70;51.50;;;;;;5035631;28;20034;-56
2022/10/05 09:38:07;;;;;;;2.53;1.80;;;21.70;52.20;;;;;;5043272;28;20033;-55
2022/10/05 09:40:46;;;;;;;3.55;1.70;;;21.70;51.70;;;;;;5020055;28;20084;-56
2022/10/05 09:43:46;;;;;;;2.97;1.60;;;21.70;51.70;;;;;;5039193;28;20028;-54
2022/10/05 09:47:03;;;;;;;5.47;1.95;;;21.70;51.70;;;;;;5036339;28;20033;-57
2022/10/05 09:49:46;;;;;;;3.70;1.88;;;21.70;51.70;;;;;;5015020;28;20050;-57
2022/10/05 09:52:30;;;;;;;3.30;1.98;;;21.70;51.80;;;;;;5014575;28;20477;-59
2022/10/05 09:55:26;;;;;;;3.97;2.03;;;21.70;51.80;;;;;;5034507;28;20033;-58
2022/10/05 09:58:05;;;;;;;3.60;2.00;;;21.70;51.80;;;;;;5045157;28;20025;-51
2022/10/05 10:00:37;;;;;;;4.38;2.30;;;21.70;51.80;;;;;;5045797;28;20116;-50
2022/10/05 10:03:26;;;;;;;2.83;1.50;;;21.70;51.80;;;;;;5036993;28;20040;-55
2022/10/05 10:05:54;;;;;;;2.92;1.73;;;21.80;51.80;;;;;;5021553;28;20037;-51
2022/10/05 10:08:42;;;;;;;2.83;1.48;;;21.80;51.80;;;;;;5035823;28;20029;-49
2022/10/05 10:11:40;;;;;;;2.85;1.48;;;21.80;51.80;;;;;;5042340;28;20086;-52
2022/10/05 10:14:43;;;;;;;4.35;1.60;;;21.80;51.80;;;;;;5037206;28;20025;-50
2022/10/05 10:17:39;;;;;;;2.47;1.50;;;21.80;51.80;;;;;;5036184;28;20039;-51
2022/10/05 10:20:15;;;;;;;4.20;1.50;;;21.90;51.80;;;;;;5047254;28;20086;-50
2022/10/05 10:23:17;;;;;;;3.95;1.80;;;21.90;51.80;;;;;;5056467;28;20032;-51
2022/10/05 10:26:21;;;;;;;1.88;1.40;;;21.90;51.80;;;;;;5044614;28;20112;-49
2022/10/05 10:29:13;;;;;;;3.03;1.35;;;21.90;51.80;;;;;;5035535;28;20306;-50
2022/10/05 10:32:05;;;;;;;3.13;1.30;;;21.90;51.70;;;;;;5033058;28;20125;-53
2022/10/05 10:34:48;;;;;;;2.80;1.83;;;21.90;51.70;;;;;;5035036;28;20043;-52
2022/10/05 10:37:37;;;;;;;4.50;1.60;;;22.00;51.80;;;;;;5034087;28;20348;-53
2022/10/05 10:40:33;;;;;;;3.28;1.75;;;22.00;51.80;;;;;;5037782;28;20037;-49
2022/10/05 10:43:39;;;;;;;7.93;2.13;;;22.00;51.80;;;;;;5035627;28;20441;-58
2022/10/05 10:46:08;;;;;;;;;;;22.00;51.80;;;;;;5045223;28;20461;-52
2022/10/05 10:49:00;;;;;;;3.83;1.65;;;22.00;51.80;;;;;;5046955;28;19925;-54
2022/10/05 10:52:02;;;;;;;3.47;1.73;;;22.00;51.80;;;;;;5043241;28;20406;-52
2022/10/05 10:54:46;;;;;;;5.13;1.80;;;22.00;51.80;;;;;;5040495;28;20086;-48
2022/10/05 10:57:19;;;;;;;3.17;1.33;;;22.10;51.90;;;;;;5045224;28;20454;-51
2022/10/05 11:00:36;;;;;;;2.22;1.25;;;22.10;51.90;;;;;;5033353;28;20037;-54
2022/10/05 11:03:29;;;;;;;4.05;1.67;;;22.10;51.90;;;;;;5007181;28;20045;-52
2022/10/05 11:06:15;;;;;;;6.10;2.00;;;22.10;51.90;;;;;;4996675;28;20048;-55
2022/10/05 11:08:56;;;;;;;3.15;1.42;;;22.10;51.90;;;;;;5033065;28;20124;-48
2022/10/05 11:11:35;;;;;;;3.08;1.60;;;22.10;51.90;;;;;;5022954;28;20044;-52
2022/10/05 11:14:20;;;;;;;2.75;1.50;;;22.10;51.80;;;;;;5026175;28;20051;-51
2022/10/05 11:16:48;;;;;;;3.25;1.58;;;22.10;51.80;;;;;;5020488;28;20069;-61
2022/10/05 11:19:20;;;;;;;2.53;1.30;;;22.10;51.80;;;;;;5019223;28;20034;-54
2022/10/05 11:22:26;;;;;;;2.58;1.55;;;22.20;51.90;;;;;;5018054;28;20405;-56
2022/10/05 11:25:06;;;;;;;2.42;1.48;;;22.20;51.80;;;;;;5026836;28;20084;-54
2022/10/05 11:27:55;;;;;;;2.33;1.33;;;22.20;51.80;;;;;;5039559;28;20107;-52
2022/10/05 11:30:35;;;;;;;3.42;0.95;;;22.20;51.70;;;;;;5033476;28;20146;-50
2022/10/05 11:33:25;;;;;;;1.95;1.13;;;22.20;51.60;;;;;;5040458;28;20111;-55
2022/10/05 11:35:52;;;;;;;1.55;1.05;;;22.20;51.50;;;;;;5041228;28;20033;-54
2022/10/05 11:38:50;;;;;;;1.05;0.80;;;22.20;51.50;;;;;;5038821;28;20116;-54
2022/10/05 11:41:32;;;;;;;3.72;1.20;;;22.20;51.40;;;;;;5048818;28;20037;-50
2022/10/05 11:44:32;;;;;;;1.77;0.85;;;22.20;51.40;;;;;;5043829;28;20032;-52
2022/10/05 11:47:10;;;;;;;1.45;1.10;;;22.20;51.40;;;;;;5030331;28;20083;-49
2022/10/05 11:49:58;;;;;;;1.67;0.85;;;22.20;51.40;;;;;;5035100;28;20028;-54
2022/10/05 11:52:35;;;;;;;1.25;0.90;;;22.20;51.40;;;;;;5032557;28;20591;-52
2022/10/05 11:55:22;;;;;;;1.23;0.77;;;22.30;51.40;;;;;;5041473;28;20036;-53
2022/10/05 11:58:06;;;;;;;1.67;0.95;;;22.30;51.40;;;;;;5026100;28;20408;-55
2022/10/05 12:00:32;;;;;;;1.52;0.95;;;22.30;51.30;;;;;;5034468;28;20082;-59
2022/10/05 12:03:16;;;;;;;1.40;0.90;;;22.30;51.30;;;;;;5030933;28;20034;-56
2022/10/05 12:05:58;;;;;;;1.27;0.77;;;22.30;51.30;;;;;;5035016;28;20364;-55
2022/10/05 12:09:01;;;;;;;1.45;0.80;;;22.30;51.30;;;;;;5033439;28;20025;-51
2022/10/05 12:12:11;;;;;;;1.35;0.80;;;22.30;51.30;;;;;;5034969;28;20372;-54
2022/10/05 12:14:43;;;;;;;2.15;0.70;;;22.30;51.20;;;;;;5010828;28;20057;-52
2022/10/05 12:17:12;;;;;;;3.70;0.80;;;22.30;51.20;;;;;;5045777;28;20373;-54
2022/10/05 12:19:44;;;;;;;1.50;0.88;;;22.30;51.30;;;;;;5036195;28;20037;-54
2022/10/05 12:22:14;;;;;;;1.15;0.90;;;22.30;51.20;;;;;;5018545;28;20076;-57
2022/10/05 12:24:44;;;;;;;1.92;1.05;;;22.40;51.30;;;;;;5037610;28;20360;-59
2022/10/05 12:27:19;;;;;;;3.50;0.93;;;22.40;51.50;;;;;;5037633;28;20112;-59
2022/10/05 12:30:04;;;;;;;1.38;0.93;;;22.40;51.60;;;;;;5037681;28;20041;-61
2022/10/05 12:32:43;;;;;;;2.25;0.80;;;22.40;51.60;;;;;;5039156;28;20037;-59
2022/10/05 12:35:36;;;;;;;1.67;0.95;;;22.50;51.60;;;;;;5028547;28;20033;-61
2022/10/05 12:38:29;;;;;;;2.05;1.10;;;22.50;51.60;;;;;;5025142;28;20026;-59
2022/10/05 12:41:12;;;;;;;1.83;1.10;;;22.70;51.50;;;;;;5022328;28;20029;-55
2022/10/05 12:43:50;;;;;;;2.65;1.05;;;22.80;51.30;;;;;;5032995;28;20026;-60
2022/10/05 12:46:38;;;;;;;1.08;0.70;;;22.90;51.10;;;;;;5034000;28;20385;-58
2022/10/05 12:49:03;;;;;;;1.20;0.98;;;23.00;50.90;;;;;;5033995;28;20376;-59
2022/10/05 12:51:56;;;;;;;0.70;0.70;;;23.10;50.70;;;;;;5035320;28;20032;-59
2022/10/05 12:54:54;;;;;;;1.30;0.80;;;23.20;50.40;;;;;;5041193;28;20033;-59
2022/10/05 12:57:52;;;;;;;2.25;1.00;;;23.30;50.20;;;;;;5043780;28;20038;-59
2022/10/05 13:00:19;;;;;;;1.33;1.00;;;23.50;50.10;;;;;;5034832;28;20030;-61
2022/10/05 13:02:52;;;;;;;0.80;0.80;;;23.60;49.90;;;;;;5037700;28;20025;-59
2022/10/05 13:05:31;;;;;;;1.40;0.77;;;23.70;49.70;;;;;;5037190;28;20392;-61
2022/10/05 13:08:18;;;;;;;1.25;0.77;;;23.80;49.60;;;;;;5048108;28;20379;-61
2022/10/05 13:10:58;;;;;;;1.08;0.75;;;23.80;49.30;;;;;;5022152;28;20052;-60
2022/10/05 13:14:01;;;;;;;1.02;0.70;;;24.00;49.30;;;;;;5036759;28;20353;-61
2022/10/05 13:16:57;;;;;;;0.80;0.80;;;24.00;49.00;;;;;;5039819;28;20520;-60
2022/10/05 13:20:01;;;;;;;1.60;0.82;;;24.10;48.90;;;;;;5033856;28;20453;-59
2022/10/05 13:22:42;;;;;;;1.27;0.77;;;24.10;48.70;;;;;;5036557;28;20045;-59
2022/10/05 13:25:38;;;;;;;0.68;0.60;;;24.20;48.60;;;;;;5034715;28;20029;-60
2022/10/05 13:28:18;;;;;;;0.88;0.75;;;24.30;48.50;;;;;;5045658;28;20463;-56
2022/10/05 13:31:12;;;;;;;1.33;0.80;;;24.30;48.30;;;;;;5034936;28;20437;-57
2022/10/05 13:33:56;;;;;;;1.07;0.80;;;24.40;48.10;;;;;;5037455;28;20029;-55
2022/10/05 13:36:38;;;;;;;0.90;0.80;;;24.40;48.10;;;;;;5033715;28;20037;-56
2022/10/05 13:39:33;;;;;;;0.95;0.75;;;24.50;48.00;;;;;;5036055;28;20053;-59
2022/10/05 13:42:11;;;;;;;;;;;24.60;47.80;;;;;;5034059;28;20349;-55
2022/10/05 13:44:54;;;;;;;0.85;0.70;;;24.60;47.70;;;;;;5034260;28;19908;-54
2022/10/05 13:47:38;;;;;;;2.92;0.80;;;24.60;47.60;;;;;;5031837;28;20132;-53
2022/10/05 13:50:24;;;;;;;0.95;0.70;;;24.60;47.50;;;;;;5034197;28;20461;-55
2022/10/05 13:53:28;;;;;;;1.75;0.60;;;24.60;47.30;;;;;;5029389;28;20053;-55
2022/10/05 13:56:14;;;;;;;0.70;0.52;;;24.60;47.30;;;;;;5039888;28;20037;-57
2022/10/05 13:58:43;;;;;;;1.08;0.75;;;24.60;47.20;;;;;;5034749;28;20116;-59
2022/10/05 14:01:40;;;;;;;0.85;0.60;;;24.60;47.20;;;;;;5032582;28;20049;-56
2022/10/05 14:04:17;;;;;;;1.00;0.60;;;24.60;47.20;;;;;;5034637;28;20022;-52
2022/10/05 14:06:43;;;;;;;2.50;0.70;;;24.60;47.20;;;;;;5035269;28;20076;-58
2022/10/05 14:09:27;;;;;;;1.92;1.00;;;24.60;47.20;;;;;;5034159;28;20029;-59
2022/10/05 14:12:02;;;;;;;1.63;0.65;;;24.60;47.20;;;;;;5032227;28;20115;-59
2022/10/05 14:14:31;;;;;;;1.02;0.60;;;24.60;47.20;;;;;;5033198;28;20044;-58
2022/10/05 14:17:02;;;;;;;0.82;0.70;;;24.60;47.20;;;;;;5033516;28;20022;-58